createdAt,value
2018-02-21T00:00:20.204Z,95295.41
2018-02-21T00:02:48.695Z,95303.41
2018-02-21T00:07:51.770Z,95303.41
2018-02-21T00:10:20.157Z,95307.36
2018-02-21T00:12:48.560Z,95310.50
2018-02-21T00:15:16.947Z,95309.22
2018-02-21T00:17:45.327Z,95316.80
2018-02-21T00:20:13.721Z,95316.98
2018-02-21T00:22:42.125Z,95319.86
2018-02-21T00:25:10.507Z,95316.62
2018-02-21T00:27:38.870Z,95312.48
2018-02-21T00:30:07.351Z,95310.20
2018-02-21T00:32:35.732Z,95301.94
2018-02-21T00:35:04.193Z,95294.61
2018-02-21T00:37:32.560Z,95299.77
2018-02-21T00:40:00.983Z,95293.94
2018-02-21T00:42:29.417Z,95293.83
2018-02-21T00:44:57.796Z,95285.64
2018-02-21T00:47:26.275Z,95301.74
2018-02-21T00:49:54.658Z,95295.61
2018-02-21T00:52:23.047Z,95307.43
2018-02-21T00:54:51.426Z,95308.47
2018-02-21T00:57:19.839Z,95309.00
2018-02-21T00:59:48.215Z,95311.56
2018-02-21T01:02:16.695Z,95326.20
2018-02-21T01:04:45.136Z,95322.31
2018-02-21T01:07:13.510Z,95325.76
2018-02-21T01:09:41.889Z,95322.59
2018-02-21T01:12:10.259Z,95317.90
2018-02-21T01:14:38.786Z,95318.57
2018-02-21T01:17:07.159Z,95322.56
2018-02-21T01:19:35.557Z,95322.07
2018-02-21T01:22:03.978Z,95325.89
2018-02-21T01:24:32.350Z,95328.70
2018-02-21T01:27:00.794Z,95333.80
2018-02-21T01:29:29.181Z,95331.52
2018-02-21T01:31:57.581Z,95339.70
2018-02-21T01:34:25.950Z,95337.80
2018-02-21T01:36:54.342Z,95339.39
2018-02-21T01:39:22.802Z,95338.38
2018-02-21T01:41:51.174Z,95333.42
2018-02-21T01:44:19.579Z,95334.20
2018-02-21T01:46:47.950Z,95337.42
2018-02-21T01:49:16.331Z,95330.99
2018-02-21T01:51:44.712Z,95337.27
2018-02-21T01:54:13.081Z,95348.26
2018-02-21T01:56:41.514Z,95342.64
2018-02-21T01:59:09.880Z,95340.28
2018-02-21T02:01:38.268Z,95345.61
2018-02-21T02:04:06.656Z,95348.77
2018-02-21T02:06:35.147Z,95351.42
2018-02-21T02:09:03.582Z,95352.77
2018-02-21T02:11:31.964Z,95359.02
2018-02-21T02:14:00.336Z,95359.45
2018-02-21T02:16:28.709Z,95365.92
2018-02-21T02:18:57.082Z,95350.83
2018-02-21T02:21:25.494Z,95350.54
2018-02-21T02:23:53.865Z,95349.06
2018-02-21T02:26:22.242Z,95345.91
2018-02-21T02:28:50.655Z,95347.27
2018-02-21T02:31:19.052Z,95358.41
2018-02-21T02:33:47.668Z,95354.25
2018-02-21T02:36:16.103Z,95355.19
2018-02-21T02:38:56.064Z,95354.63
2018-02-21T02:41:24.498Z,95345.70
2018-02-21T02:43:52.878Z,95350.30
2018-02-21T02:46:21.244Z,95349.04
2018-02-21T02:48:49.611Z,95351.91
2018-02-21T02:51:18.000Z,95349.94
2018-02-21T02:53:46.381Z,95349.38
2018-02-21T02:56:14.883Z,95337.08
2018-02-21T02:58:43.260Z,95337.11
2018-02-21T03:01:11.654Z,95323.72
2018-02-21T03:03:40.104Z,95325.70
2018-02-21T03:06:08.481Z,95320.26
2018-02-21T03:08:36.859Z,95320.19
2018-02-21T03:11:05.226Z,95317.45
2018-02-21T03:13:33.631Z,95317.80
2018-02-21T03:16:02.584Z,95313.27
2018-02-21T03:18:30.983Z,95326.98
2018-02-21T03:20:59.367Z,95330.80
2018-02-21T03:23:27.739Z,95330.22
2018-02-21T03:25:56.120Z,95328.75
2018-02-21T03:28:24.507Z,95326.27
2018-02-21T03:30:52.877Z,95329.66
2018-02-21T03:33:21.252Z,95328.73
2018-02-21T03:35:49.748Z,95330.22
2018-02-21T03:38:18.132Z,95338.08
2018-02-21T03:40:46.505Z,95332.39
2018-02-21T03:43:14.878Z,95336.32
2018-02-21T03:45:43.303Z,95335.93
2018-02-21T03:48:11.683Z,95336.94
2018-02-21T03:50:40.065Z,95337.32
2018-02-21T03:53:08.458Z,95333.14
2018-02-21T03:55:36.912Z,95340.45
2018-02-21T03:58:05.296Z,95352.17
2018-02-21T04:00:33.774Z,95338.13
2018-02-21T04:03:02.174Z,95340.92
2018-02-21T04:05:30.654Z,95335.23
2018-02-21T04:07:59.078Z,95340.03
2018-02-21T04:10:27.489Z,95349.73
2018-02-21T04:12:56.048Z,95353.19
2018-02-21T04:15:24.465Z,95366.52
2018-02-21T04:17:52.875Z,95377.59
2018-02-21T04:20:21.324Z,95391.22
2018-02-21T04:22:49.720Z,95391.52
2018-02-21T04:25:18.201Z,95390.16
2018-02-21T04:27:46.625Z,95395.77
2018-02-21T04:30:15.030Z,95392.03
2018-02-21T04:32:43.592Z,95388.16
2018-02-21T04:35:12.013Z,95376.53
2018-02-21T04:37:40.482Z,95371.08
2018-02-21T04:40:08.859Z,95363.14
2018-02-21T04:42:37.289Z,95355.85
2018-02-21T04:45:06.101Z,95364.64
2018-02-21T04:47:34.488Z,95363.69
2018-02-21T04:50:02.882Z,95367.61
2018-02-21T04:52:31.427Z,95374.71
2018-02-21T05:00:50.037Z,95376.45
2018-02-21T05:03:18.528Z,95373.12
2018-02-21T05:05:46.926Z,95370.94
2018-02-21T05:08:15.378Z,95375.46
2018-02-21T05:10:43.758Z,95377.98
2018-02-21T05:13:12.158Z,95383.30
2018-02-21T05:15:40.542Z,95378.80
2018-02-21T05:18:08.921Z,95385.98
2018-02-21T05:20:37.299Z,95384.64
2018-02-21T05:23:06.087Z,95390.44
2018-02-21T05:25:34.514Z,95388.85
2018-02-21T05:28:02.888Z,95388.05
2018-02-21T05:30:31.382Z,95394.48
2018-02-21T05:32:59.799Z,95398.81
2018-02-21T05:35:28.221Z,95395.19
2018-02-21T05:37:56.674Z,95389.75
2018-02-21T05:40:25.106Z,95386.30
2018-02-21T05:42:53.506Z,95394.62
2018-02-21T05:45:22.095Z,95396.21
2018-02-21T05:47:50.514Z,95393.62
2018-02-21T05:50:19.047Z,95393.66
2018-02-21T05:52:47.586Z,95387.67
2018-02-21T05:55:16.016Z,95391.36
2018-02-21T05:57:44.435Z,95390.34
2018-02-21T06:00:12.913Z,95395.23
2018-02-21T06:02:41.406Z,95394.09
2018-02-21T06:05:09.903Z,95399.88
2018-02-21T06:07:38.242Z,95400.34
2018-02-21T06:10:06.643Z,95403.09
2018-02-21T06:12:35.117Z,95405.80
2018-02-21T06:15:03.520Z,95414.20
2018-02-21T06:17:32.132Z,95419.02
2018-02-21T06:20:00.545Z,95416.11
2018-02-21T06:22:28.957Z,95408.59
2018-02-21T06:24:57.508Z,95409.19
2018-02-21T06:27:25.876Z,95408.23
2018-02-21T06:29:54.316Z,95418.58
2018-02-21T06:32:22.725Z,95415.61
2018-02-21T06:34:51.136Z,95422.78
2018-02-21T06:37:19.597Z,95415.61
2018-02-21T06:39:48.001Z,95418.00
2018-02-21T06:42:16.401Z,95407.51
2018-02-21T06:44:44.921Z,95408.66
2018-02-21T06:47:13.351Z,95411.24
2018-02-21T06:49:42.141Z,95408.57
2018-02-21T06:52:10.722Z,95405.04
2018-02-21T06:54:39.196Z,95406.58
2018-02-21T06:57:07.616Z,95414.80
2018-02-21T06:59:36.042Z,95420.30
2018-02-21T07:02:04.520Z,95419.78
2018-02-21T07:04:32.925Z,95410.89
2018-02-21T07:07:01.312Z,95423.14
2018-02-21T07:09:29.728Z,95427.23
2018-02-21T07:11:58.119Z,95438.84
2018-02-21T07:14:26.930Z,95436.49
2018-02-21T07:16:55.360Z,95449.79
2018-02-21T07:19:23.913Z,95442.56
2018-02-21T07:21:52.346Z,95443.23
2018-02-21T07:24:20.755Z,95438.70
2018-02-21T07:26:49.291Z,95434.31
2018-02-21T07:29:17.703Z,95433.78
2018-02-21T07:31:46.148Z,95437.08
2018-02-21T07:34:14.643Z,95436.17
2018-02-21T07:36:43.116Z,95435.35
2018-02-21T07:39:11.582Z,95437.73
2018-02-21T07:41:39.996Z,95449.78
2018-02-21T07:44:08.415Z,95456.34
2018-02-21T07:46:36.812Z,95463.16
2018-02-21T07:49:05.263Z,95465.83
2018-02-21T07:51:33.993Z,95467.03
2018-02-21T07:54:02.524Z,95467.88
2018-02-21T07:56:30.947Z,95465.58
2018-02-21T07:58:59.867Z,95464.57
2018-02-21T08:01:28.271Z,95464.41
2018-02-21T08:03:56.967Z,95469.61
2018-02-21T08:06:25.518Z,95460.13
2018-02-21T08:08:53.950Z,95462.47
2018-02-21T08:11:22.431Z,95461.70
2018-02-21T08:13:50.825Z,95462.59
2018-02-21T08:16:19.352Z,95461.92
2018-02-21T08:18:47.769Z,95462.45
2018-02-21T08:21:16.169Z,95464.61
2018-02-21T08:23:44.663Z,95461.52
2018-02-21T08:26:13.295Z,95461.92
2018-02-21T08:28:41.707Z,95457.16
2018-02-21T08:31:10.106Z,95469.30
2018-02-21T08:33:38.518Z,95465.31
2018-02-21T08:36:06.929Z,95461.62
2018-02-21T08:38:35.427Z,95463.88
2018-02-21T08:41:03.836Z,95464.76
2018-02-21T08:43:32.243Z,95457.84
2018-02-21T08:46:00.694Z,95444.55
2018-02-21T08:48:29.109Z,95447.69
2018-02-21T08:50:57.689Z,95450.08
2018-02-21T08:53:26.088Z,95444.48
2018-02-21T08:55:54.486Z,95442.94
2018-02-21T08:58:22.893Z,95435.11
2018-02-21T09:00:51.299Z,95434.15
2018-02-21T09:03:19.776Z,95428.05
2018-02-21T09:05:48.193Z,95428.16
2018-02-21T09:08:16.602Z,95422.19
2018-02-21T09:10:45.028Z,95430.23
2018-02-21T09:13:13.453Z,95432.98
2018-02-21T09:18:16.375Z,95436.19
2018-02-21T09:20:45.069Z,95440.65
2018-02-21T09:23:13.488Z,95438.20
2018-02-21T09:25:41.907Z,95437.94
2018-02-21T09:28:10.838Z,95436.42
2018-02-21T09:30:39.252Z,95441.53
2018-02-21T09:33:07.757Z,95443.19
2018-02-21T09:35:36.184Z,95438.56
2018-02-21T09:38:04.621Z,95443.61
2018-02-21T09:40:33.046Z,95445.58
2018-02-21T09:43:01.473Z,95438.52
2018-02-21T09:45:30.026Z,95444.05
2018-02-21T09:47:58.439Z,95454.84
2018-02-21T09:50:26.856Z,95447.86
2018-02-21T09:52:55.254Z,95448.62
2018-02-21T09:55:23.684Z,95449.08
2018-02-21T09:57:52.147Z,95455.38
2018-02-21T10:00:20.561Z,95450.62
2018-02-21T10:02:48.950Z,95446.45
2018-02-21T10:05:17.367Z,95451.35
2018-02-21T10:07:45.766Z,95450.37
2018-02-21T10:10:14.430Z,95453.42
2018-02-21T10:12:42.835Z,95452.70
2018-02-21T10:15:11.369Z,95449.51
2018-02-21T10:17:39.843Z,95457.39
2018-02-21T10:20:08.265Z,95453.27
2018-02-21T10:22:36.726Z,95453.08
2018-02-21T10:25:05.144Z,95458.23
2018-02-21T10:27:33.555Z,95454.56
2018-02-21T10:30:01.992Z,95458.03
2018-02-21T10:32:30.451Z,95453.30
2018-02-21T10:34:59.010Z,95455.48
2018-02-21T10:37:27.419Z,95441.70
2018-02-21T10:39:55.852Z,95453.14
2018-02-21T10:42:24.259Z,95454.91
2018-02-21T10:44:52.663Z,95455.54
2018-02-21T10:47:21.116Z,95452.30
2018-02-21T10:49:49.532Z,95439.20
2018-02-21T10:52:17.964Z,95442.37
2018-02-21T10:54:46.380Z,95446.22
2018-02-21T10:57:14.853Z,95452.95
2018-02-21T10:59:43.327Z,95452.42
2018-02-21T11:02:11.731Z,95460.42
2018-02-21T11:04:40.173Z,95452.54
2018-02-21T11:07:08.647Z,95453.38
2018-02-21T11:09:37.053Z,95442.72
2018-02-21T11:12:05.534Z,95438.53
2018-02-21T11:14:33.939Z,95442.19
2018-02-21T11:17:02.350Z,95440.16
2018-02-21T11:19:30.754Z,95445.59
2018-02-21T11:21:59.205Z,95444.48
2018-02-21T11:24:27.722Z,95446.72
2018-02-21T11:26:56.249Z,95441.34
2018-02-21T11:29:24.728Z,95435.92
2018-02-21T11:31:53.129Z,95437.50
2018-02-21T11:34:21.536Z,95434.32
2018-02-21T11:36:50.046Z,95441.61
2018-02-21T11:39:18.474Z,95434.05
2018-02-21T11:41:46.954Z,95434.87
2018-02-21T11:44:15.363Z,95444.22
2018-02-21T11:46:43.777Z,95444.45
2018-02-21T11:49:12.195Z,95439.10
2018-02-21T11:51:40.622Z,95441.58
2018-02-21T11:54:09.072Z,95440.56
2018-02-21T11:56:37.466Z,95436.59
2018-02-21T11:59:05.884Z,95436.37
2018-02-21T12:01:34.438Z,95434.13
2018-02-21T12:04:02.853Z,95424.19
2018-02-21T12:06:31.325Z,95441.66
2018-02-21T12:08:59.743Z,95431.25
2018-02-21T12:11:28.198Z,95438.22
2018-02-21T12:13:56.634Z,95438.83
2018-02-21T12:16:25.052Z,95444.97
2018-02-21T12:18:53.535Z,95446.03
2018-02-21T12:21:22.011Z,95441.08
2018-02-21T12:23:50.418Z,95434.36
2018-02-21T12:26:18.826Z,95436.64
2018-02-21T12:28:47.234Z,95429.75
2018-02-21T12:31:15.699Z,95441.63
2018-02-21T12:33:44.108Z,95440.50
2018-02-21T12:36:12.527Z,95442.09
2018-02-21T12:38:41.172Z,95419.80
2018-02-21T12:41:16.121Z,95429.48
2018-02-21T12:43:44.517Z,95430.72
2018-02-21T12:46:12.934Z,95419.13
2018-02-21T12:48:41.419Z,95413.23
2018-02-21T12:51:09.867Z,95412.24
2018-02-21T12:53:38.292Z,95412.81
2018-02-21T12:56:06.738Z,95408.23
2018-02-21T12:58:35.156Z,95404.59
2018-02-21T13:01:03.720Z,95404.70
2018-02-21T13:03:32.183Z,95400.95
2018-02-21T13:06:00.595Z,95396.13
2018-02-21T13:08:29.297Z,95404.15
2018-02-21T13:10:57.839Z,95395.80
2018-02-21T13:13:26.442Z,95392.77
2018-02-21T13:15:55.149Z,95395.09
2018-02-21T13:18:23.732Z,95390.77
2018-02-21T13:20:52.077Z,95395.66
2018-02-21T13:23:20.582Z,95401.54
2018-02-21T13:25:49.189Z,95399.00
2018-02-21T13:28:17.577Z,95399.64
2018-02-21T13:30:46.000Z,95402.00
2018-02-21T13:33:14.419Z,95403.81
2018-02-21T13:35:42.827Z,95403.27
2018-02-21T13:38:14.450Z,95405.34
2018-02-21T13:40:42.870Z,95397.70
2018-02-21T13:43:11.305Z,95402.94
2018-02-21T13:45:39.695Z,95395.06
2018-02-21T13:48:08.172Z,95398.13
2018-02-21T13:50:36.650Z,95388.23
2018-02-21T13:53:05.067Z,95393.94
2018-02-21T13:55:33.490Z,95393.09
2018-02-21T13:58:01.906Z,95393.16
2018-02-21T14:00:30.453Z,95391.47
2018-02-21T14:02:59.237Z,95386.64
2018-02-21T14:05:27.643Z,95395.09
2018-02-21T14:07:56.067Z,95389.55
2018-02-21T14:10:24.509Z,95390.81
2018-02-21T14:12:52.923Z,95394.36
2018-02-21T14:15:21.375Z,95391.91
2018-02-21T14:17:49.782Z,95390.22
2018-02-21T14:20:18.185Z,95393.08
2018-02-21T14:22:46.623Z,95390.57
2018-02-21T14:25:15.022Z,95383.55
2018-02-21T14:27:43.508Z,95387.48
2018-02-21T14:30:11.942Z,95384.02
2018-02-21T14:32:40.437Z,95385.64
2018-02-21T14:35:08.850Z,95385.90
2018-02-21T14:37:37.360Z,95387.28
2018-02-21T14:40:05.928Z,95378.93
2018-02-21T14:42:34.359Z,95381.70
2018-02-21T14:45:02.979Z,95381.90
2018-02-21T14:47:31.412Z,95374.73
2018-02-21T14:49:59.816Z,95371.98
2018-02-21T14:52:28.321Z,95379.44
2018-02-21T14:54:56.745Z,95382.37
2018-02-21T14:57:25.172Z,95373.41
2018-02-21T14:59:53.600Z,95379.02
2018-02-21T15:02:22.005Z,95379.64
2018-02-21T15:04:50.502Z,95377.13
2018-02-21T15:07:18.935Z,95381.64
2018-02-21T15:09:47.364Z,95377.13
2018-02-21T15:12:15.786Z,95375.14
2018-02-21T15:14:44.220Z,95376.66
2018-02-21T15:17:12.964Z,95367.13
2018-02-21T15:19:41.372Z,95368.30
2018-02-21T15:25:10.060Z,95364.94
2018-02-21T15:27:38.467Z,95359.11
2018-02-21T15:30:06.966Z,95361.85
2018-02-21T15:32:35.421Z,95366.09
2018-02-21T15:35:03.889Z,95364.78
2018-02-21T15:37:32.342Z,95364.48
2018-02-21T15:40:00.848Z,95359.99
2018-02-21T15:42:29.250Z,95365.28
2018-02-21T15:44:57.719Z,95365.73
2018-02-21T15:47:26.231Z,95361.77
2018-02-21T15:49:54.735Z,95367.33
2018-02-21T15:52:23.159Z,95365.30
2018-02-21T15:55:06.870Z,95366.47
2018-02-21T15:57:35.254Z,95367.90
2018-02-21T16:00:03.665Z,95366.00
2018-02-21T16:02:32.081Z,95365.11
2018-02-21T16:05:00.540Z,95369.81
2018-02-21T16:07:29.094Z,95366.64
2018-02-21T16:09:57.505Z,95367.84
2018-02-21T16:12:25.950Z,95370.12
2018-02-21T16:14:54.361Z,95373.91
2018-02-21T16:17:22.790Z,95377.47
2018-02-21T16:19:51.266Z,95369.72
2018-02-21T16:22:19.725Z,95377.30
2018-02-21T16:24:48.168Z,95368.73
2018-02-21T16:27:16.593Z,95375.26
2018-02-21T16:29:45.007Z,95375.63
2018-02-21T16:32:13.508Z,95378.86
2018-02-21T16:34:41.910Z,95375.50
2018-02-21T16:37:10.358Z,95375.15
2018-02-21T16:39:38.820Z,95377.08
2018-02-21T16:42:07.255Z,95371.25
2018-02-21T16:44:36.015Z,95374.41
2018-02-21T16:47:04.435Z,95369.81
2018-02-21T16:49:32.849Z,95368.00
2018-02-21T16:52:01.271Z,95373.95
2018-02-21T16:54:29.680Z,95369.66
2018-02-21T16:56:58.159Z,95375.74
2018-02-21T16:59:26.586Z,95380.23
2018-02-21T17:01:55.496Z,95372.88
2018-02-21T17:04:23.911Z,95384.27
2018-02-21T17:06:52.318Z,95381.48
2018-02-21T17:09:20.740Z,95384.25
2018-02-21T17:11:50.006Z,95385.72
2018-02-21T17:14:18.577Z,95388.29
2018-02-21T17:16:46.978Z,95393.42
2018-02-21T17:19:15.396Z,95389.64
2018-02-21T17:21:43.849Z,95397.66
2018-02-21T17:24:12.242Z,95392.70
2018-02-21T17:26:40.671Z,95402.83
2018-02-21T17:29:10.991Z,95400.34
2018-02-21T17:31:39.479Z,95403.37
2018-02-21T17:34:07.889Z,95401.09
2018-02-21T17:36:36.300Z,95419.96
2018-02-21T17:39:04.845Z,95406.75
2018-02-21T17:41:33.316Z,95409.41
2018-02-21T17:44:01.768Z,95408.50
2018-02-21T17:46:30.147Z,95421.54
2018-02-21T17:48:58.618Z,95421.55
2018-02-21T17:51:27.051Z,95423.87
2018-02-21T17:53:55.515Z,95423.40
2018-02-21T17:56:23.978Z,95429.20
2018-02-21T17:58:52.383Z,95426.31
2018-02-21T18:01:20.788Z,95423.58
2018-02-21T18:03:49.198Z,95423.44
2018-02-21T18:06:17.688Z,95418.55
2018-02-21T18:08:46.118Z,95420.20
2018-02-21T18:11:14.538Z,95423.13
2018-02-21T18:13:42.970Z,95424.00
2018-02-21T18:16:12.289Z,95420.67
2018-02-21T18:18:40.801Z,95433.38
2018-02-21T18:21:09.217Z,95425.11
2018-02-21T18:23:37.835Z,95429.20
2018-02-21T18:26:08.040Z,95422.17
2018-02-21T18:28:36.565Z,95414.98
2018-02-21T18:31:05.321Z,95420.95
2018-02-21T18:33:34.224Z,95423.02
2018-02-21T18:36:02.688Z,95425.64
2018-02-21T18:38:32.328Z,95427.48
2018-02-21T18:41:04.858Z,95425.70
2018-02-21T18:43:33.303Z,95420.54
2018-02-21T18:46:01.726Z,95422.45
2018-02-21T18:48:30.123Z,95422.22
2018-02-21T18:50:58.537Z,95423.08
2018-02-21T18:53:26.952Z,95427.73
2018-02-21T18:55:55.418Z,95429.95
2018-02-21T18:58:23.830Z,95424.95
2018-02-21T19:00:52.247Z,95427.20
2018-02-21T19:03:20.682Z,95422.70
2018-02-21T19:05:49.137Z,95433.48
2018-02-21T19:10:51.730Z,95424.89
2018-02-21T19:13:20.170Z,95435.06
2018-02-21T19:15:48.647Z,95431.36
2018-02-21T19:18:17.061Z,95433.22
2018-02-21T19:20:45.480Z,95439.76
2018-02-21T19:23:14.801Z,95433.06
2018-02-21T19:25:43.297Z,95439.22
2018-02-21T19:28:11.874Z,95435.02
2018-02-21T19:30:40.454Z,95428.45
2018-02-21T19:33:08.873Z,95432.75
2018-02-21T19:35:37.283Z,95433.50
2018-02-21T19:38:05.714Z,95437.84
2018-02-21T19:40:34.213Z,95432.57
2018-02-21T19:43:02.603Z,95435.31
2018-02-21T19:45:31.021Z,95439.34
2018-02-21T19:47:59.440Z,95432.80
2018-02-21T19:50:27.986Z,95434.92
2018-02-21T19:52:56.548Z,95434.47
2018-02-21T19:55:25.945Z,95431.64
2018-02-21T19:57:55.267Z,95430.07
2018-02-21T20:00:23.656Z,95438.94
2018-02-21T20:02:52.069Z,95444.31
2018-02-21T20:05:20.579Z,95441.98
2018-02-21T20:07:49.203Z,95446.48
2018-02-21T20:10:17.644Z,95444.39
2018-02-21T20:12:46.960Z,95445.47
2018-02-21T20:15:15.370Z,95449.62
2018-02-21T20:17:44.166Z,95440.88
2018-02-21T20:20:12.640Z,95451.07
2018-02-21T20:22:41.191Z,95448.73
2018-02-21T20:25:09.618Z,95448.93
2018-02-21T20:27:38.042Z,95456.84
2018-02-21T20:30:06.623Z,95449.17
2018-02-21T20:32:35.071Z,95451.49
2018-02-21T20:35:03.489Z,95447.91
2018-02-21T20:37:31.974Z,95457.65
2018-02-21T20:40:00.416Z,95462.34
2018-02-21T20:42:28.894Z,95454.28
2018-02-21T20:44:57.520Z,95457.59
2018-02-21T20:47:26.022Z,95447.71
2018-02-21T20:49:54.456Z,95455.52
2018-02-21T20:52:23.214Z,95456.61
2018-02-21T20:54:52.084Z,95466.04
2018-02-21T20:57:20.946Z,95458.18
2018-02-21T20:59:49.482Z,95456.92
2018-02-21T21:02:17.897Z,95460.64
2018-02-21T21:04:46.313Z,95460.24
2018-02-21T21:07:14.798Z,95458.52
2018-02-21T21:09:43.430Z,95463.06
2018-02-21T21:12:12.188Z,95460.08
2018-02-21T21:14:40.739Z,95456.81
2018-02-21T21:17:09.147Z,95461.69
2018-02-21T21:19:37.646Z,95452.17
2018-02-21T21:22:06.049Z,95449.77
2018-02-21T21:24:34.454Z,95452.45
2018-02-21T21:27:02.908Z,95452.36
2018-02-21T21:29:31.332Z,95455.59
2018-02-21T21:31:59.989Z,95454.58
2018-02-21T21:34:28.440Z,95460.69
2018-02-21T21:36:56.871Z,95455.17
2018-02-21T21:39:25.316Z,95454.38
2018-02-21T21:41:54.721Z,95453.03
2018-02-21T21:44:23.373Z,95458.48
2018-02-21T21:46:52.503Z,95451.15
2018-02-21T21:49:21.035Z,95451.83
2018-02-21T21:51:51.865Z,95457.22
2018-02-21T21:54:20.326Z,95453.65
2018-02-21T21:56:48.863Z,95456.87
2018-02-21T21:59:17.266Z,95449.98
2018-02-21T22:01:45.651Z,95450.48
2018-02-21T22:04:14.075Z,95448.75
2018-02-21T22:06:42.484Z,95449.92
2018-02-21T22:09:10.968Z,95457.16
2018-02-21T22:11:39.353Z,95450.70
2018-02-21T22:14:07.831Z,95441.75
2018-02-21T22:16:36.257Z,95446.11
2018-02-21T22:19:04.662Z,95448.97
2018-02-21T22:21:33.137Z,95451.64
2018-02-21T22:24:01.542Z,95454.51
2018-02-21T22:26:29.947Z,95459.06
2018-02-21T22:28:58.360Z,95457.10
2018-02-21T22:31:26.756Z,95450.30
2018-02-21T22:33:55.225Z,95453.19
2018-02-21T22:36:23.665Z,95456.30
2018-02-21T22:38:52.049Z,95454.90
2018-02-21T22:41:20.458Z,95454.48
2018-02-21T22:43:48.858Z,95448.38
2018-02-21T22:46:18.509Z,95447.84
2018-02-21T22:48:46.914Z,95447.17
2018-02-21T22:51:15.335Z,95452.28
2018-02-21T22:53:43.752Z,95453.98
2018-02-21T22:56:12.162Z,95456.76
2018-02-21T22:58:40.655Z,95456.92
2018-02-21T23:01:09.125Z,95452.17
2018-02-21T23:03:37.643Z,95447.84
2018-02-21T23:06:06.082Z,95450.09
2018-02-21T23:08:34.493Z,95444.78
2018-02-21T23:11:02.970Z,95444.91
2018-02-21T23:13:31.373Z,95451.22
2018-02-21T23:15:59.781Z,95454.89
2018-02-21T23:18:28.178Z,95449.33
2018-02-21T23:20:56.574Z,95452.83
2018-02-21T23:23:25.200Z,95447.14
2018-02-21T23:25:53.611Z,95454.91
2018-02-21T23:28:21.995Z,95451.80
2018-02-21T23:30:50.416Z,95451.64
2018-02-21T23:33:18.908Z,95441.48
2018-02-21T23:35:47.395Z,95441.01
2018-02-21T23:38:15.797Z,95447.83
2018-02-21T23:40:44.199Z,95442.42
2018-02-21T23:43:12.700Z,95443.70
2018-02-21T23:45:41.172Z,95448.61
2018-02-21T23:48:09.650Z,95434.82
2018-02-21T23:50:38.056Z,95439.22
2018-02-21T23:53:06.481Z,95441.30
2018-02-21T23:55:34.876Z,95443.86
2018-02-21T23:58:03.268Z,95438.20
